Time;durP1;ratioP1;P1;durP2;ratioP2;P2;SDS_P1;SDS_P2;PMS_P1;PMS_P2;Temp;Humidity;BMP_temperature;BMP_pressure;BME280_temperature;BME280_humidity;BME280_pressure;Samples;Min_cycle;Max_cycle;Signal;HPM_P1;HPM_P2
2023/01/25 00:01:35;;;;;;;18.38;10.50;;;0.60;99.90;;;;;;5095521;28;20044;-84
2023/01/25 00:04:01;;;;;;;16.75;9.00;;;0.60;99.90;;;;;;5077415;28;20024;-83
2023/01/25 00:06:26;;;;;;;15.15;8.80;;;0.60;99.90;;;;;;5077350;28;20149;-84
2023/01/25 00:08:52;;;;;;;13.70;8.50;;;0.60;99.90;;;;;;5095333;28;20031;-84
2023/01/25 00:11:19;;;;;;;14.35;8.35;;;0.60;99.90;;;;;;5077415;28;20048;-84
2023/01/25 00:13:45;;;;;;;15.80;8.95;;;0.60;99.90;;;;;;5077444;28;20505;-84
2023/01/25 00:16:10;;;;;;;12.43;8.13;;;0.60;99.90;;;;;;5095121;28;20050;-84
2023/01/25 00:18:36;;;;;;;11.55;7.78;;;0.60;99.90;;;;;;5089984;28;20044;-84
2023/01/25 00:21:20;;;;;;;14.30;8.95;;;0.60;99.90;;;;;;5073335;28;20111;-84
2023/01/25 00:23:45;;;;;;;14.50;7.80;;;0.60;99.90;;;;;;5074034;28;20162;-85
2023/01/25 00:26:11;;;;;;;15.40;9.00;;;0.60;99.90;;;;;;5074812;28;20052;-85
2023/01/25 00:28:37;;;;;;;14.75;8.45;;;0.60;99.90;;;;;;5073426;28;20025;-85
2023/01/25 00:31:04;;;;;;;14.30;9.18;;;0.60;99.90;;;;;;5074033;28;20017;-84
2023/01/25 00:33:54;;;;;;;16.55;9.27;;;0.60;99.90;;;;;;5074638;28;20012;-85
2023/01/25 00:36:25;;;;;;;15.38;9.00;;;0.60;99.90;;;;;;5073244;28;20390;-85
2023/01/25 00:38:53;;;;;;;16.15;9.90;;;0.60;99.90;;;;;;5073188;28;20119;-84
2023/01/25 00:41:19;;;;;;;18.77;8.73;;;0.60;99.90;;;;;;5072997;28;20028;-85
2023/01/25 00:43:45;;;;;;;20.00;9.85;;;0.60;99.90;;;;;;5074283;28;20099;-85
2023/01/25 00:46:15;;;;;;;18.25;10.40;;;0.60;99.90;;;;;;5074214;28;20100;-84
2023/01/25 00:48:41;;;;;;;16.27;8.52;;;0.70;99.90;;;;;;5074292;28;20390;-84
2023/01/25 00:51:07;;;;;;;17.00;9.65;;;0.70;99.90;;;;;;5074350;28;20028;-85
2023/01/25 00:53:33;;;;;;;17.23;9.32;;;0.70;99.90;;;;;;5074349;28;20020;-84
2023/01/25 00:55:58;;;;;;;22.10;10.60;;;0.70;99.90;;;;;;5073380;28;20024;-84
2023/01/25 00:58:24;;;;;;;19.92;11.82;;;0.70;99.90;;;;;;5073962;28;20029;-85
2023/01/25 01:00:52;;;;;;;23.05;10.32;;;0.70;99.90;;;;;;5072835;28;20494;-84
2023/01/25 01:03:20;;;;;;;23.48;10.57;;;0.80;99.90;;;;;;5073934;28;20047;-85
2023/01/25 01:05:46;;;;;;;19.10;10.57;;;0.80;99.90;;;;;;5073761;28;20024;-84
2023/01/25 01:08:13;;;;;;;20.70;11.70;;;0.80;99.90;;;;;;5073897;28;20021;-84
2023/01/25 01:10:39;;;;;;;22.23;10.05;;;0.80;99.90;;;;;;5072516;28;20028;-84
2023/01/25 01:13:06;;;;;;;20.70;10.45;;;0.80;99.90;;;;;;5074113;28;20051;-84
2023/01/25 01:15:35;;;;;;;18.10;8.88;;;0.80;99.90;;;;;;5073728;28;20028;-84
2023/01/25 01:18:01;;;;;;;17.80;8.32;;;0.70;99.90;;;;;;5074022;28;20034;-84
2023/01/25 01:20:26;;;;;;;19.05;9.77;;;0.80;99.90;;;;;;5075698;28;20036;-84
2023/01/25 01:22:54;;;;;;;16.70;9.55;;;0.80;99.90;;;;;;5076122;28;20051;-85
2023/01/25 01:25:20;;;;;;;14.70;8.65;;;0.80;99.90;;;;;;5094086;28;20024;-84
2023/01/25 01:27:45;;;;;;;15.07;9.15;;;0.80;99.90;;;;;;5093849;28;20461;-84
2023/01/25 01:30:12;;;;;;;11.90;8.25;;;0.80;99.90;;;;;;5075632;28;20509;-84
2023/01/25 01:32:37;;;;;;;14.80;8.95;;;0.80;99.90;;;;;;5093877;28;20028;-84
2023/01/25 01:35:03;;;;;;;20.77;8.95;;;0.80;99.90;;;;;;5093931;28;20469;-84
2023/01/25 01:37:29;;;;;;;16.98;9.43;;;0.80;99.90;;;;;;5075876;28;20069;-84
2023/01/25 01:39:54;;;;;;;14.35;8.02;;;0.90;99.90;;;;;;5093869;28;20031;-84
2023/01/25 01:42:20;;;;;;;15.90;8.88;;;0.90;99.90;;;;;;5091561;28;20115;-84
2023/01/25 01:44:53;;;;;;;15.32;9.70;;;0.90;99.90;;;;;;5075710;28;20062;-84
2023/01/25 01:47:27;;;;;;;16.95;8.98;;;0.90;99.90;;;;;;5092675;28;20107;-83
2023/01/25 01:50:00;;;;;;;13.10;8.35;;;0.90;99.90;;;;;;5075813;28;20470;-84
2023/01/25 01:52:33;;;;;;;21.10;10.35;;;0.80;99.90;;;;;;5075430;28;20431;-84
2023/01/25 01:55:07;;;;;;;22.40;9.65;;;0.80;99.90;;;;;;5093502;28;20102;-84
2023/01/25 01:57:41;;;;;;;19.00;9.40;;;0.90;99.90;;;;;;5093597;28;20053;-84
2023/01/25 02:00:16;;;;;;;17.98;9.30;;;0.90;99.90;;;;;;5075378;28;20062;-84
2023/01/25 02:02:42;;;;;;;20.63;9.88;;;0.90;99.90;;;;;;5075689;28;20027;-82
2023/01/25 02:05:15;;;;;;;15.07;8.57;;;0.90;99.90;;;;;;5075683;28;20024;-83
2023/01/25 02:07:43;;;;;;;12.38;8.93;;;0.90;99.90;;;;;;5075388;28;20123;-82
2023/01/25 02:10:11;;;;;;;13.95;7.72;;;0.90;99.90;;;;;;5093602;28;20027;-84
2023/01/25 02:12:38;;;;;;;14.35;7.55;;;0.90;99.90;;;;;;5093586;28;20052;-82
2023/01/25 02:15:04;;;;;;;12.13;7.45;;;0.80;99.90;;;;;;5075305;28;20423;-84
2023/01/25 02:17:33;;;;;;;14.07;7.57;;;0.80;99.90;;;;;;5075070;28;20030;-83
2023/01/25 02:20:18;;;;;;;14.02;7.63;;;0.80;99.90;;;;;;5093141;28;20047;-83
2023/01/25 02:23:00;;;;;;;12.10;7.22;;;0.80;99.90;;;;;;5075138;28;20024;-84
2023/01/25 02:25:27;;;;;;;12.68;7.20;;;0.70;99.90;;;;;;5074704;28;20389;-86
2023/01/25 02:27:59;;;;;;;13.32;7.35;;;0.70;99.90;;;;;;5074874;28;20107;-83
2023/01/25 02:30:25;;;;;;;13.35;7.93;;;0.70;99.90;;;;;;5080683;28;20024;-82
2023/01/25 02:32:50;;;;;;;13.40;7.55;;;0.70;99.90;;;;;;5073010;28;20016;-82
2023/01/25 02:35:22;;;;;;;19.65;9.75;;;0.70;99.90;;;;;;5055019;28;20020;-81
2023/01/25 02:37:48;;;;;;;18.90;9.35;;;0.70;99.90;;;;;;5054835;28;20028;-82
2023/01/25 02:40:13;;;;;;;23.17;10.50;;;0.70;99.90;;;;;;5054804;28;20035;-83
2023/01/25 02:42:43;;;;;;;22.75;10.82;;;0.80;99.90;;;;;;5072972;28;20020;-82
2023/01/25 02:45:15;;;;;;;21.23;11.82;;;0.80;99.90;;;;;;5055064;28;20035;-82
2023/01/25 02:47:41;;;;;;;20.90;11.18;;;0.80;99.90;;;;;;5054828;28;20051;-82
2023/01/25 02:50:08;;;;;;;20.50;10.48;;;0.80;99.90;;;;;;5072907;28;20029;-82
2023/01/25 02:52:33;;;;;;;20.85;11.65;;;0.80;99.90;;;;;;5054789;28;20027;-83
2023/01/25 02:54:59;;;;;;;24.00;10.35;;;0.80;99.90;;;;;;5057187;28;20386;-83
2023/01/25 02:57:24;;;;;;;21.35;9.38;;;0.80;99.90;;;;;;5058596;28;20082;-82
2023/01/25 02:59:50;;;;;;;16.48;9.07;;;0.80;99.90;;;;;;5058412;28;20024;-82
2023/01/25 03:02:15;;;;;;;17.05;9.80;;;0.80;99.90;;;;;;5076389;28;20024;-82
2023/01/25 03:04:41;;;;;;;20.17;10.05;;;0.80;99.90;;;;;;5076361;28;20020;-82
2023/01/25 03:07:07;;;;;;;18.25;9.10;;;0.80;99.90;;;;;;5076434;28;20032;-83
2023/01/25 03:09:32;;;;;;;17.70;10.00;;;0.80;99.90;;;;;;5075201;28;20013;-82
2023/01/25 03:11:58;;;;;;;18.52;10.10;;;0.80;99.90;;;;;;5058335;28;20025;-82
2023/01/25 03:14:23;;;;;;;19.33;10.68;;;0.80;99.90;;;;;;5058158;28;20385;-86
2023/01/25 03:16:49;;;;;;;18.38;10.35;;;0.80;99.90;;;;;;5058384;28;20583;-86
2023/01/25 03:19:15;;;;;;;18.38;9.82;;;0.80;99.90;;;;;;5076106;28;20078;-86
2023/01/25 03:21:40;;;;;;;22.60;10.45;;;0.80;99.90;;;;;;5074716;28;20078;-84
2023/01/25 03:24:08;;;;;;;21.55;11.27;;;0.90;99.90;;;;;;5076299;28;20032;-86
2023/01/25 03:27:09;;;;;;;21.95;12.10;;;0.80;99.90;;;;;;5074870;28;20111;-85
2023/01/25 03:29:22;;;;;;;23.45;10.57;;;0.80;99.90;;;;;;5076038;28;20397;-84
2023/01/25 03:31:47;;;;;;;23.00;12.75;;;0.90;99.90;;;;;;5076043;28;20096;-84
2023/01/25 03:34:13;;;;;;;26.30;12.32;;;0.80;99.90;;;;;;5076129;28;20035;-84
2023/01/25 03:36:39;;;;;;;23.23;11.75;;;0.90;99.90;;;;;;5076013;28;20021;-84
2023/01/25 03:39:04;;;;;;;20.58;10.88;;;0.90;99.90;;;;;;5074888;28;20028;-85
2023/01/25 03:41:30;;;;;;;24.90;12.35;;;0.80;99.90;;;;;;5075342;28;20090;-85
2023/01/25 03:43:56;;;;;;;27.80;11.63;;;0.90;99.90;;;;;;5074568;28;20052;-85
2023/01/25 03:46:21;;;;;;;20.23;11.70;;;0.90;99.90;;;;;;5075350;28;20359;-85
2023/01/25 03:48:47;;;;;;;24.20;11.07;;;0.90;99.90;;;;;;5075527;28;20429;-85
2023/01/25 03:51:13;;;;;;;24.20;11.32;;;0.90;99.90;;;;;;5074065;28;20016;-86
2023/01/25 03:53:38;;;;;;;23.20;10.80;;;0.90;99.90;;;;;;5075637;28;20143;-84
2023/01/25 03:56:09;;;;;;;22.15;11.27;;;0.90;99.90;;;;;;5074232;28;20489;-84
2023/01/25 03:58:36;;;;;;;21.55;10.93;;;0.90;99.90;;;;;;5075452;28;20051;-84
2023/01/25 04:01:03;;;;;;;24.98;12.38;;;0.90;99.90;;;;;;5075467;28;20033;-83
2023/01/25 04:03:29;;;;;;;17.20;9.88;;;0.90;99.90;;;;;;5075458;28;20154;-84
2023/01/25 04:05:56;;;;;;;23.17;13.07;;;0.90;99.90;;;;;;5074440;28;20056;-84
2023/01/25 04:08:23;;;;;;;26.55;12.00;;;0.90;99.90;;;;;;5074105;28;20431;-83
2023/01/25 04:11:09;;;;;;;26.58;13.18;;;0.90;99.90;;;;;;5075532;28;20017;-83
2023/01/25 04:13:36;;;;;;;24.88;12.15;;;0.90;99.90;;;;;;5073550;28;20039;-83
2023/01/25 04:16:03;;;;;;;22.38;11.27;;;0.90;99.90;;;;;;5073780;28;20027;-84
2023/01/25 04:18:29;;;;;;;23.25;12.13;;;0.90;99.90;;;;;;5074936;28;20105;-86
2023/01/25 04:20:56;;;;;;;24.27;12.73;;;0.90;99.90;;;;;;5074828;28;20556;-84
2023/01/25 04:23:23;;;;;;;24.05;12.45;;;0.90;99.90;;;;;;5075369;28;20032;-84
2023/01/25 04:25:56;;;;;;;25.08;12.68;;;0.90;99.90;;;;;;5074843;28;20110;-84
2023/01/25 04:28:22;;;;;;;22.77;13.27;;;0.90;99.90;;;;;;5074520;28;20025;-86
2023/01/25 04:30:48;;;;;;;20.20;9.77;;;0.90;99.90;;;;;;5074711;28;20020;-83
2023/01/25 04:33:13;;;;;;;19.60;10.27;;;0.90;99.90;;;;;;5074428;28;20025;-85
2023/01/25 04:35:39;;;;;;;19.05;9.52;;;0.80;99.90;;;;;;5081334;28;20017;-84
2023/01/25 04:38:05;;;;;;;22.58;10.23;;;0.80;99.90;;;;;;5073436;28;20032;-84
2023/01/25 04:40:30;;;;;;;20.00;9.55;;;0.70;99.90;;;;;;5072942;28;20437;-84
2023/01/25 04:42:57;;;;;;;20.58;10.73;;;0.70;99.90;;;;;;5073664;28;20548;-86
2023/01/25 04:45:24;;;;;;;22.98;10.98;;;0.60;99.90;;;;;;5074208;28;20465;-86
2023/01/25 04:47:58;;;;;;;22.30;10.48;;;0.70;99.90;;;;;;5074203;28;20028;-84
2023/01/25 04:50:24;;;;;;;19.10;10.55;;;0.70;99.90;;;;;;5073086;28;20064;-84
2023/01/25 04:52:50;;;;;;;20.75;10.45;;;0.60;99.90;;;;;;5074245;28;20157;-84
2023/01/25 04:55:16;;;;;;;17.88;10.23;;;0.60;99.90;;;;;;5074186;28;20033;-85
2023/01/25 04:57:41;;;;;;;19.55;9.93;;;0.60;99.90;;;;;;5073132;28;20035;-85
2023/01/25 05:00:08;;;;;;;23.15;11.68;;;0.60;99.90;;;;;;5072795;28;20032;-85
2023/01/25 05:02:34;;;;;;;25.92;11.20;;;0.60;99.90;;;;;;5074204;28;20386;-84
2023/01/25 05:05:00;;;;;;;22.90;11.95;;;0.70;99.90;;;;;;5073883;28;20024;-85
2023/01/25 05:07:25;;;;;;;26.25;11.70;;;0.60;99.90;;;;;;5072455;28;20028;-85
2023/01/25 05:09:51;;;;;;;29.25;12.88;;;0.60;99.90;;;;;;5072823;28;20056;-84
2023/01/25 05:12:16;;;;;;;27.90;13.10;;;0.60;99.90;;;;;;5072773;28;20048;-83
2023/01/25 05:14:42;;;;;;;25.55;11.38;;;0.70;99.90;;;;;;5073771;28;20050;-84
2023/01/25 05:17:08;;;;;;;22.35;11.60;;;0.70;99.90;;;;;;5073739;28;20107;-84
2023/01/25 05:19:34;;;;;;;18.35;9.40;;;0.60;99.90;;;;;;5075748;28;20052;-84
2023/01/25 05:22:01;;;;;;;19.30;10.88;;;0.60;99.90;;;;;;5075720;28;20032;-84
2023/01/25 05:24:31;;;;;;;15.85;7.97;;;0.60;99.90;;;;;;5075809;28;20115;-84
2023/01/25 05:27:02;;;;;;;20.20;9.07;;;0.60;99.90;;;;;;5093666;28;20024;-84
2023/01/25 05:29:34;;;;;;;19.13;9.25;;;0.60;99.90;;;;;;5075837;28;20013;-84
2023/01/25 05:32:05;;;;;;;22.83;11.20;;;0.60;99.90;;;;;;5093953;28;20432;-84
2023/01/25 05:34:31;;;;;;;18.23;8.95;;;0.60;99.90;;;;;;5094075;28;20103;-84
2023/01/25 05:36:56;;;;;;;23.35;10.93;;;0.60;99.90;;;;;;5093683;28;20051;-84
2023/01/25 05:39:22;;;;;;;15.90;9.55;;;0.60;99.90;;;;;;5075579;28;20024;-84
2023/01/25 05:41:48;;;;;;;18.15;9.95;;;0.60;99.90;;;;;;5093595;28;20028;-84
2023/01/25 05:44:14;;;;;;;18.83;9.20;;;0.50;99.90;;;;;;5075546;28;20381;-84
2023/01/25 05:46:39;;;;;;;15.85;9.43;;;0.50;99.90;;;;;;5075753;28;20047;-84
2023/01/25 05:49:05;;;;;;;15.13;8.70;;;0.50;99.90;;;;;;5075218;28;20427;-85
2023/01/25 05:51:31;;;;;;;14.77;9.23;;;0.50;99.90;;;;;;5075161;28;20021;-85
2023/01/25 05:53:57;;;;;;;18.80;9.50;;;0.50;99.90;;;;;;5075374;28;20094;-84
2023/01/25 05:56:23;;;;;;;13.60;7.97;;;0.50;99.90;;;;;;5093201;28;20031;-83
2023/01/25 05:58:56;;;;;;;17.02;8.40;;;0.50;99.90;;;;;;5093399;28;20050;-84
2023/01/25 06:01:22;;;;;;;11.82;6.75;;;0.50;99.90;;;;;;5093107;28;20085;-85
2023/01/25 06:03:48;;;;;;;11.90;6.78;;;0.50;99.90;;;;;;5092886;28;20028;-85
2023/01/25 06:06:14;;;;;;;13.40;6.85;;;0.50;99.90;;;;;;5075227;28;20106;-84
2023/01/25 06:08:40;;;;;;;9.02;6.13;;;0.50;99.90;;;;;;5075192;28;20024;-82
2023/01/25 06:11:10;;;;;;;15.70;7.65;;;0.50;99.90;;;;;;5093426;28;20553;-83
2023/01/25 06:13:36;;;;;;;17.13;8.43;;;0.50;99.90;;;;;;5075259;28;20069;-84
2023/01/25 06:16:02;;;;;;;15.43;8.57;;;0.60;99.90;;;;;;5093004;28;20436;-83
2023/01/25 06:18:29;;;;;;;14.80;9.15;;;0.50;99.90;;;;;;5071584;28;20048;-84
2023/01/25 06:20:56;;;;;;;18.48;10.07;;;0.60;99.90;;;;;;5071826;28;20059;-84
2023/01/25 06:23:21;;;;;;;14.57;8.30;;;0.60;99.90;;;;;;5071887;28;20073;-83
2023/01/25 06:25:47;;;;;;;14.95;9.13;;;0.60;99.90;;;;;;5073131;28;20020;-83
2023/01/25 06:28:13;;;;;;;23.10;10.93;;;0.60;99.90;;;;;;5072116;28;20521;-83
2023/01/25 06:30:38;;;;;;;19.90;9.38;;;0.60;99.90;;;;;;5075207;28;20025;-83
2023/01/25 06:33:04;;;;;;;23.33;12.48;;;0.60;99.90;;;;;;5077000;28;20496;-84
2023/01/25 06:35:33;;;;;;;30.27;14.52;;;0.60;99.90;;;;;;5074674;28;20432;-85
2023/01/25 06:37:59;;;;;;;31.65;14.73;;;0.60;99.90;;;;;;5072289;28;20017;-85
2023/01/25 06:40:26;;;;;;;24.27;12.88;;;0.60;99.90;;;;;;5073815;28;20036;-85
2023/01/25 06:42:53;;;;;;;21.25;9.73;;;0.60;99.90;;;;;;5073805;28;20035;-85
2023/01/25 06:45:18;;;;;;;25.48;12.25;;;0.60;99.90;;;;;;5076450;28;20028;-84
2023/01/25 06:47:45;;;;;;;25.70;13.70;;;0.60;99.90;;;;;;5075167;28;20074;-84
2023/01/25 06:50:11;;;;;;;21.73;11.68;;;0.60;99.90;;;;;;5074989;28;20086;-85
2023/01/25 06:52:37;;;;;;;21.63;13.43;;;0.60;99.90;;;;;;5074948;28;20012;-84
2023/01/25 06:55:03;;;;;;;24.65;13.43;;;0.60;99.90;;;;;;5074915;28;20040;-85
2023/01/25 06:57:29;;;;;;;27.23;12.75;;;0.60;99.90;;;;;;5057235;28;20371;-84
2023/01/25 06:59:55;;;;;;;28.63;14.95;;;0.60;99.90;;;;;;5075944;28;20028;-85
2023/01/25 07:02:20;;;;;;;21.50;11.60;;;0.60;99.90;;;;;;5073131;28;20040;-85
2023/01/25 07:04:47;;;;;;;26.42;12.73;;;0.60;99.90;;;;;;5073156;28;20033;-84
2023/01/25 07:07:13;;;;;;;24.52;14.40;;;0.70;99.90;;;;;;5074826;28;20021;-86
2023/01/25 07:09:38;;;;;;;26.80;16.02;;;0.70;99.90;;;;;;5073418;28;20390;-84
2023/01/25 07:12:04;;;;;;;24.58;14.35;;;0.70;99.90;;;;;;5074515;28;20052;-85
2023/01/25 07:14:31;;;;;;;22.95;12.20;;;0.70;99.90;;;;;;5072263;28;20048;-85
2023/01/25 07:16:57;;;;;;;16.42;8.38;;;0.70;99.90;;;;;;5072253;28;20028;-82
2023/01/25 07:19:23;;;;;;;15.93;8.13;;;0.70;99.90;;;;;;5070208;28;20505;-82
2023/01/25 07:21:48;;;;;;;16.65;7.90;;;0.70;99.90;;;;;;5072731;28;20033;-82
2023/01/25 07:24:16;;;;;;;14.00;8.20;;;0.70;99.90;;;;;;5070578;28;20029;-85
2023/01/25 07:26:42;;;;;;;13.73;8.30;;;0.70;99.90;;;;;;5061724;28;20013;-83
2023/01/25 07:29:12;;;;;;;14.65;7.50;;;0.80;99.90;;;;;;5069641;28;20032;-83
2023/01/25 07:31:37;;;;;;;14.00;8.05;;;0.80;99.90;;;;;;5062703;28;20086;-83
2023/01/25 07:34:03;;;;;;;13.82;7.35;;;0.80;99.90;;;;;;5070589;28;20478;-83
2023/01/25 07:36:31;;;;;;;15.55;8.75;;;0.80;99.90;;;;;;5057113;28;20374;-84
2023/01/25 07:38:57;;;;;;;12.20;7.30;;;0.80;99.90;;;;;;5073223;28;20486;-84
2023/01/25 07:41:24;;;;;;;16.05;7.65;;;0.80;99.90;;;;;;5071998;28;20151;-84
2023/01/25 07:43:50;;;;;;;17.05;8.93;;;0.80;99.90;;;;;;5072156;28;20378;-84
2023/01/25 07:46:16;;;;;;;14.75;8.20;;;0.80;99.90;;;;;;5072209;28;20016;-84
2023/01/25 07:48:46;;;;;;;17.80;9.85;;;0.80;99.90;;;;;;5073683;28;20532;-84
2023/01/25 07:51:21;;;;;;;19.23;9.85;;;0.80;99.90;;;;;;5072398;28;20052;-84
2023/01/25 07:53:54;;;;;;;20.65;10.88;;;0.80;99.90;;;;;;5072550;28;20044;-83
2023/01/25 07:56:22;;;;;;;17.92;10.57;;;0.80;99.90;;;;;;5067904;28;20028;-83
2023/01/25 07:58:48;;;;;;;16.48;9.73;;;0.80;99.90;;;;;;5072344;28;20033;-83
2023/01/25 08:01:18;;;;;;;12.27;7.78;;;0.80;99.90;;;;;;5063663;28;20071;-83
2023/01/25 08:03:45;;;;;;;18.13;8.75;;;0.80;99.90;;;;;;5073700;28;20509;-83
2023/01/25 08:06:11;;;;;;;16.02;8.32;;;0.80;99.90;;;;;;5073464;28;20029;-83
2023/01/25 08:08:40;;;;;;;12.07;7.50;;;0.80;99.90;;;;;;5074529;28;20103;-83
2023/01/25 08:11:12;;;;;;;9.68;5.75;;;0.80;99.90;;;;;;5074000;28;20388;-83
2023/01/25 08:13:38;;;;;;;10.88;6.18;;;0.80;99.90;;;;;;5086483;28;20421;-82
2023/01/25 08:16:04;;;;;;;8.63;6.95;;;0.70;99.90;;;;;;5063344;28;20044;-84
2023/01/25 08:18:30;;;;;;;10.98;7.10;;;0.70;99.90;;;;;;5072055;28;20044;-84
2023/01/25 08:20:59;;;;;;;11.00;7.57;;;0.70;99.90;;;;;;5072053;28;20485;-83
2023/01/25 08:23:26;;;;;;;7.85;5.50;;;0.80;99.90;;;;;;5072199;28;20104;-83
2023/01/25 08:25:52;;;;;;;10.57;6.25;;;0.80;99.90;;;;;;5073308;28;20025;-83
2023/01/25 08:28:17;;;;;;;11.30;6.95;;;0.80;99.90;;;;;;5066440;28;20025;-84
2023/01/25 08:30:43;;;;;;;15.43;8.70;;;0.80;99.90;;;;;;5066229;28;20032;-83
2023/01/25 08:33:09;;;;;;;17.60;9.95;;;0.80;99.90;;;;;;5074739;28;20035;-83
2023/01/25 08:35:36;;;;;;;12.30;8.70;;;0.80;99.90;;;;;;5073552;28;20024;-83
2023/01/25 08:38:02;;;;;;;6.28;4.88;;;0.80;99.90;;;;;;5072599;28;20114;-83
2023/01/25 08:40:28;;;;;;;7.95;4.47;;;0.80;99.90;;;;;;5062604;28;20174;-85
2023/01/25 08:42:54;;;;;;;5.95;4.32;;;0.80;99.90;;;;;;5052448;28;20048;-85
2023/01/25 08:45:19;;;;;;;7.43;4.38;;;0.70;99.90;;;;;;5053111;28;20490;-85
2023/01/25 08:47:45;;;;;;;10.73;7.93;;;0.80;99.90;;;;;;5054023;28;20070;-83
2023/01/25 08:50:11;;;;;;;22.05;9.05;;;0.80;99.90;;;;;;5073062;28;20063;-83
2023/01/25 08:52:36;;;;;;;14.93;7.75;;;0.80;99.90;;;;;;5072257;28;20028;-83
2023/01/25 08:55:02;;;;;;;13.75;8.68;;;0.90;99.90;;;;;;5070666;28;20043;-85
2023/01/25 08:57:28;;;;;;;7.03;4.90;;;0.90;99.90;;;;;;5069555;28;20401;-86
2023/01/25 08:59:53;;;;;;;7.47;4.47;;;1.00;99.90;;;;;;5071991;28;20045;-84
2023/01/25 09:02:22;;;;;;;7.28;4.78;;;1.00;99.90;;;;;;5070021;28;20075;-83
2023/01/25 09:04:47;;;;;;;10.57;5.95;;;0.90;99.90;;;;;;5072004;28;20111;-82
2023/01/25 09:07:13;;;;;;;10.07;5.78;;;1.00;99.90;;;;;;5070832;28;20108;-83
2023/01/25 09:09:39;;;;;;;7.88;5.32;;;1.00;99.90;;;;;;5071291;28;20045;-83
2023/01/25 09:12:05;;;;;;;6.97;4.82;;;1.20;99.90;;;;;;5059691;28;20068;-83
2023/01/25 09:14:30;;;;;;;12.63;6.55;;;1.20;99.90;;;;;;5068759;28;20498;-83
2023/01/25 09:16:56;;;;;;;8.20;4.65;;;1.20;99.90;;;;;;5070953;28;20027;-83
2023/01/25 09:19:22;;;;;;;8.02;5.18;;;1.20;99.90;;;;;;5070704;28;20051;-84
2023/01/25 09:21:47;;;;;;;15.43;7.78;;;1.20;99.90;;;;;;5063663;28;20116;-84
2023/01/25 09:24:13;;;;;;;6.07;4.28;;;1.10;99.90;;;;;;5067021;28;20116;-83
2023/01/25 09:26:41;;;;;;;6.15;4.45;;;1.10;99.90;;;;;;5071141;28;20041;-84
2023/01/25 09:29:08;;;;;;;6.47;5.35;;;1.10;99.90;;;;;;5063131;28;20029;-84
2023/01/25 09:31:34;;;;;;;7.30;4.32;;;1.10;99.90;;;;;;5070893;28;20020;-84
2023/01/25 09:33:59;;;;;;;5.82;4.32;;;1.20;99.90;;;;;;5072170;28;20513;-84
2023/01/25 09:36:25;;;;;;;11.63;7.00;;;1.30;99.90;;;;;;5072972;28;20052;-84
2023/01/25 09:38:51;;;;;;;10.07;5.57;;;1.40;99.90;;;;;;5070208;28;20058;-84
2023/01/25 09:41:47;;;;;;;8.32;5.60;;;1.40;99.90;;;;;;5071845;28;20070;-84
2023/01/25 09:44:31;;;;;;;5.35;4.60;;;1.40;99.90;;;;;;5070332;28;20047;-84
2023/01/25 09:47:19;;;;;;;8.15;5.30;;;1.40;99.90;;;;;;5069990;28;20067;-84
2023/01/25 09:50:11;;;;;;;7.60;4.78;;;1.40;99.90;;;;;;5068472;28;20037;-84
2023/01/25 09:53:11;;;;;;;7.93;5.80;;;1.40;99.90;;;;;;5068591;28;20035;-84
2023/01/25 09:55:38;;;;;;;12.05;7.13;;;1.40;99.90;;;;;;5068900;28;20083;-84
2023/01/25 09:58:08;;;;;;;12.27;7.57;;;1.40;99.90;;;;;;5071303;28;20039;-84
2023/01/25 10:00:46;;;;;;;13.57;7.88;;;1.30;99.90;;;;;;5068238;28;20529;-84
2023/01/25 10:03:33;;;;;;;13.02;7.40;;;1.40;99.90;;;;;;5068684;28;20498;-84
2023/01/25 10:06:01;;;;;;;15.90;9.30;;;1.40;99.90;;;;;;5069952;28;20097;-84
2023/01/25 10:08:48;;;;;;;11.60;7.28;;;1.50;99.90;;;;;;5061138;28;20372;-84
2023/01/25 10:11:30;;;;;;;14.07;7.32;;;1.50;99.90;;;;;;5068472;28;20021;-84
2023/01/25 10:13:57;;;;;;;13.80;7.55;;;1.60;99.90;;;;;;5051945;28;20111;-84
2023/01/25 10:16:44;;;;;;;12.00;6.97;;;1.50;99.90;;;;;;5051247;28;20021;-85
2023/01/25 10:19:27;;;;;;;11.05;7.10;;;1.50;99.90;;;;;;5049994;28;20076;-84
2023/01/25 10:21:57;;;;;;;9.85;5.75;;;1.40;99.90;;;;;;5050125;28;20466;-84
2023/01/25 10:24:31;;;;;;;12.23;6.95;;;1.40;99.90;;;;;;5065043;28;20072;-85
2023/01/25 10:27:26;;;;;;;8.23;6.05;;;1.40;99.90;;;;;;5070768;28;20462;-84
2023/01/25 10:29:56;;;;;;;12.10;6.78;;;1.40;99.90;;;;;;5066849;28;20064;-84
2023/01/25 10:32:31;;;;;;;8.77;5.88;;;1.40;99.90;;;;;;5070599;28;20029;-84
2023/01/25 10:35:00;;;;;;;9.57;6.80;;;1.40;99.90;;;;;;5071439;28;20036;-84
2023/01/25 10:37:31;;;;;;;17.45;10.57;;;1.40;99.90;;;;;;5071843;28;20051;-85
2023/01/25 10:40:06;;;;;;;18.70;10.63;;;1.40;99.90;;;;;;5071727;28;20033;-84
2023/01/25 10:42:46;;;;;;;13.55;8.50;;;1.40;99.90;;;;;;5070721;28;20037;-84
2023/01/25 10:45:13;;;;;;;10.88;7.70;;;1.30;99.90;;;;;;5070002;28;20493;-85
2023/01/25 10:47:42;;;;;;;12.48;8.10;;;1.30;99.90;;;;;;5071878;28;20024;-84
2023/01/25 10:50:09;;;;;;;9.00;6.20;;;1.30;99.90;;;;;;5071559;28;20061;-84
2023/01/25 10:52:36;;;;;;;13.02;8.45;;;1.40;99.90;;;;;;5071182;28;20043;-84
2023/01/25 10:55:15;;;;;;;12.02;7.40;;;1.30;99.90;;;;;;5051116;28;20040;-84
2023/01/25 10:57:48;;;;;;;10.30;7.20;;;1.40;99.90;;;;;;5050228;28;20017;-84
2023/01/25 11:00:37;;;;;;;13.75;8.45;;;1.40;99.90;;;;;;5049970;28;20032;-84
2023/01/25 11:03:03;;;;;;;9.98;7.50;;;1.40;99.90;;;;;;5049959;28;20123;-84
2023/01/25 11:05:34;;;;;;;10.55;6.47;;;1.40;99.90;;;;;;5049814;28;20068;-84
2023/01/25 11:08:21;;;;;;;8.98;6.65;;;1.40;99.90;;;;;;5050698;28;20058;-85
2023/01/25 11:10:47;;;;;;;10.48;7.00;;;1.40;99.90;;;;;;5049515;28;20033;-85
2023/01/25 11:13:15;;;;;;;12.73;6.68;;;1.50;99.90;;;;;;5050280;28;20021;-85
2023/01/25 11:15:50;;;;;;;11.77;7.22;;;1.50;99.90;;;;;;5068371;28;20029;-84
2023/01/25 11:18:28;;;;;;;13.85;8.63;;;1.60;99.90;;;;;;5053699;28;20036;-85
2023/01/25 11:21:17;;;;;;;10.57;6.82;;;1.60;99.90;;;;;;5052984;28;20037;-83
2023/01/25 11:23:56;;;;;;;12.95;7.20;;;1.60;99.90;;;;;;5063700;28;20466;-85
2023/01/25 11:26:21;;;;;;;13.65;8.32;;;1.50;99.90;;;;;;5073589;28;20056;-84
2023/01/25 11:28:47;;;;;;;20.25;10.50;;;1.50;99.90;;;;;;5073748;28;20048;-83
2023/01/25 11:31:20;;;;;;;23.77;11.38;;;1.50;99.90;;;;;;5074843;28;20037;-84
2023/01/25 11:33:46;;;;;;;;;;;1.60;99.90;;;;;;5075123;28;20448;-83
2023/01/25 11:36:18;;;;;;;11.13;6.78;;;1.50;99.90;;;;;;5074417;28;19929;-84
2023/01/25 11:39:11;;;;;;;13.57;7.72;;;1.50;99.90;;;;;;5074839;28;20429;-84
2023/01/25 11:42:02;;;;;;;72.88;23.58;;;1.50;99.90;;;;;;5074694;28;20044;-84
2023/01/25 11:44:37;;;;;;;21.85;10.52;;;1.60;99.90;;;;;;5073449;28;20025;-83
2023/01/25 11:47:54;;;;;;;18.17;10.90;;;1.60;99.90;;;;;;5073992;28;20047;-83
2023/01/25 11:50:46;;;;;;;13.82;7.72;;;1.70;99.90;;;;;;5048610;28;20041;-83
2023/01/25 11:53:35;;;;;;;13.00;8.20;;;1.70;99.90;;;;;;5074021;28;20021;-83
2023/01/25 11:56:23;;;;;;;14.75;9.13;;;1.70;99.90;;;;;;5072845;28;20046;-83
2023/01/25 11:59:00;;;;;;;12.50;8.50;;;1.70;99.90;;;;;;5073796;28;20016;-84
2023/01/25 12:01:55;;;;;;;14.90;11.30;;;1.60;99.90;;;;;;5073862;28;20060;-84
2023/01/25 12:05:00;;;;;;;15.25;9.52;;;1.50;99.90;;;;;;5074276;28;20025;-83
2023/01/25 12:07:56;;;;;;;12.93;9.30;;;1.60;99.90;;;;;;5072165;28;20055;-83
2023/01/25 12:10:46;;;;;;;13.15;8.00;;;1.60;99.90;;;;;;5072545;28;20025;-84
2023/01/25 12:13:30;;;;;;;38.05;17.75;;;1.60;99.90;;;;;;5072554;28;20028;-84
2023/01/25 12:16:28;;;;;;;39.25;23.90;;;1.60;99.90;;;;;;5073947;28;20111;-83
2023/01/25 12:19:27;;;;;;;37.97;21.15;;;1.50;99.90;;;;;;5069343;28;20040;-83
2023/01/25 12:22:17;;;;;;;14.48;11.18;;;1.60;99.90;;;;;;5072890;28;20127;-83
2023/01/25 12:24:55;;;;;;;15.27;8.73;;;1.70;99.90;;;;;;5073825;28;20028;-82
2023/01/25 12:27:58;;;;;;;13.20;7.88;;;1.70;99.90;;;;;;5073062;28;20111;-83
2023/01/25 12:30:55;;;;;;;13.27;8.52;;;1.70;99.90;;;;;;5072606;28;20440;-83
2023/01/25 12:33:46;;;;;;;16.42;10.07;;;1.60;99.90;;;;;;5073684;28;20028;-83
2023/01/25 12:36:30;;;;;;;13.00;8.60;;;1.70;99.90;;;;;;5071278;28;20055;-83
2023/01/25 12:39:36;;;;;;;16.80;10.07;;;1.70;99.90;;;;;;5071326;28;20115;-84
2023/01/25 12:42:03;;;;;;;18.27;9.25;;;1.70;99.90;;;;;;5073047;28;20044;-83
2023/01/25 12:44:28;;;;;;;19.80;10.73;;;1.70;99.90;;;;;;5072337;28;20017;-83
2023/01/25 12:47:11;;;;;;;17.88;9.18;;;1.60;99.90;;;;;;5068046;28;20043;-83
2023/01/25 12:49:45;;;;;;;15.25;9.52;;;1.60;99.90;;;;;;5052620;28;20043;-83
2023/01/25 12:52:36;;;;;;;13.20;9.00;;;1.70;99.90;;;;;;5051513;28;20501;-83
2023/01/25 12:55:11;;;;;;;12.95;7.82;;;1.60;99.90;;;;;;5048217;28;20083;-84
2023/01/25 12:57:58;;;;;;;14.88;7.55;;;1.60;99.90;;;;;;5053284;28;20044;-84
2023/01/25 13:00:48;;;;;;;12.23;6.85;;;1.70;99.90;;;;;;5053563;28;20421;-83
2023/01/25 13:03:46;;;;;;;14.15;7.80;;;1.60;99.90;;;;;;5052722;28;20040;-84